Time;durP1;ratioP1;P1;durP2;ratioP2;P2;SDS_P1;SDS_P2;PMS_P1;PMS_P2;Temp;Humidity;BMP_temperature;BMP_pressure;BME280_temperature;BME280_humidity;BME280_pressure;Samples;Min_cycle;Max_cycle;Signal;HPM_P1;HPM_P2
2022/03/20 00:00:12;;;;;;;20.25;16.25;;;;;;;4.94;51.56;102394.69;679832;29;1237;-79
2022/03/20 00:00:34;;;;;;;21.85;16.33;;;;;;;4.91;51.99;102399.72;680181;29;1319;-78
2022/03/20 00:00:54;;;;;;;21.90;16.58;;;;;;;4.89;52.55;102386.69;680392;29;1609;-80
2022/03/20 00:01:15;;;;;;;22.43;16.30;;;;;;;4.92;51.59;102392.03;680372;29;1339;-79
2022/03/20 00:01:38;;;;;;;22.02;16.05;;;;;;;4.95;51.03;102391.28;666322;28;4502;-79
2022/03/20 00:01:59;;;;;;;21.52;16.27;;;;;;;4.98;51.15;102391.41;676922;29;1647;-78
2022/03/20 00:02:19;;;;;;;20.65;15.90;;;;;;;4.97;50.60;102389.66;677370;29;2510;-78
2022/03/20 00:02:40;;;;;;;22.03;16.13;;;;;;;4.95;51.09;102393.88;675455;29;1448;-78
2022/03/20 00:03:12;;;;;;;21.50;16.10;;;;;;;4.92;51.30;102388.56;677420;29;1958;-78
2022/03/20 00:03:32;;;;;;;20.80;16.58;;;;;;;4.93;51.47;102385.16;674592;29;1136;-79
2022/03/20 00:03:52;;;;;;;20.73;15.73;;;;;;;4.95;51.44;102386.09;678282;29;1149;-78
2022/03/20 00:04:13;;;;;;;21.58;15.98;;;;;;;4.95;50.49;102386.09;677192;29;1354;-79
2022/03/20 00:04:33;;;;;;;20.77;16.50;;;;;;;4.93;50.75;102388.63;676156;29;4363;-78
2022/03/20 00:04:54;;;;;;;21.37;16.33;;;;;;;4.93;51.41;102388.63;673132;29;2137;-78
2022/03/20 00:05:15;;;;;;;22.35;16.40;;;;;;;4.93;51.28;102379.97;671893;29;1847;-78
2022/03/20 00:05:38;;;;;;;20.52;16.10;;;;;;;4.90;51.67;102382.38;674243;29;1309;-78
2022/03/20 00:05:59;;;;;;;19.88;15.88;;;;;;;4.91;51.37;102389.34;675179;29;1731;-78
2022/03/20 00:06:22;;;;;;;19.45;15.48;;;;;;;5.00;50.70;102383.69;671867;29;1276;-79
2022/03/20 00:06:45;;;;;;;20.80;15.93;;;;;;;5.03;50.71;102408.06;672873;29;1311;-78
2022/03/20 00:07:11;;;;;;;21.02;15.95;;;;;;;5.02;51.42;102382.97;673979;29;1508;-79
2022/03/20 00:07:33;;;;;;;21.27;16.13;;;;;;;4.94;52.23;102374.84;678013;29;4454;-78
2022/03/20 00:07:55;;;;;;;23.00;16.63;;;;;;;4.88;51.95;102369.38;676733;29;1655;-79
2022/03/20 00:08:17;;;;;;;20.92;16.33;;;;;;;4.84;52.63;102377.81;677286;29;1123;-78
2022/03/20 00:08:37;;;;;;;22.38;16.08;;;;;;;4.85;51.86;102399.47;676366;29;1379;-78
2022/03/20 00:08:58;;;;;;;23.05;16.48;;;;;;;4.90;51.79;102374.63;677928;29;1233;-79
2022/03/20 00:09:18;;;;;;;22.47;16.80;;;;;;;4.86;51.40;102385.66;677544;29;1311;-78
2022/03/20 00:09:39;;;;;;;20.92;16.33;;;;;;;4.85;52.30;102384.78;676337;29;1414;-80
2022/03/20 00:10:03;;;;;;;19.87;15.93;;;;;;;4.82;52.00;102397.59;677014;29;1257;-79
2022/03/20 00:10:24;;;;;;;20.55;16.33;;;;;;;4.75;51.61;102370.50;671563;29;5222;-79
2022/03/20 00:10:46;;;;;;;22.05;16.25;;;;;;;4.77;52.22;102366.28;674090;29;1175;-79
2022/03/20 00:11:07;;;;;;;21.10;16.20;;;;;;;4.81;52.55;102402.72;676564;29;1432;-81
2022/03/20 00:11:28;;;;;;;21.70;16.50;;;;;;;4.76;51.86;102393.03;678899;29;1263;-79
2022/03/20 00:11:51;;;;;;;21.63;17.27;;;;;;;4.71;51.72;102371.19;679635;29;1431;-78
2022/03/20 00:12:11;;;;;;;21.40;16.95;;;;;;;4.72;51.87;102391.09;677528;29;1129;-80
2022/03/20 00:12:32;;;;;;;20.95;15.93;;;;;;;4.75;51.80;102396.44;676945;29;1274;-79
2022/03/20 00:12:53;;;;;;;20.02;16.00;;;;;;;4.76;51.33;102386.94;676905;29;1339;-79
2022/03/20 00:13:20;;;;;;;19.57;15.73;;;;;;;4.81;51.89;102367.31;678224;29;1155;-80
2022/03/20 00:13:42;;;;;;;21.74;16.16;;;;;;;4.90;52.03;102369.44;677186;29;5068;-79
2022/03/20 00:14:02;;;;;;;22.02;15.95;;;;;;;4.87;51.43;102366.72;679232;29;1463;-79
2022/03/20 00:14:23;;;;;;;21.15;15.85;;;;;;;4.92;51.10;102376.47;680181;29;1235;-79
2022/03/20 00:14:45;;;;;;;20.55;15.68;;;;;;;4.94;51.22;102369.66;674798;29;1469;-79
2022/03/20 00:15:06;;;;;;;22.48;15.60;;;;;;;4.88;51.62;102365.91;677477;29;1243;-79
2022/03/20 00:15:28;;;;;;;21.55;15.90;;;;;;;4.85;51.68;102368.34;679201;29;1479;-78
2022/03/20 00:15:51;;;;;;;22.60;16.00;;;;;;;4.93;51.80;102372.19;679866;29;1344;-79
2022/03/20 00:16:11;;;;;;;21.20;15.88;;;;;;;4.90;51.63;102367.75;680006;29;1450;-79
2022/03/20 00:16:32;;;;;;;19.83;16.00;;;;;;;4.89;51.81;102375.47;681030;28;4314;-78
2022/03/20 00:16:52;;;;;;;20.48;15.88;;;;;;;4.82;51.87;102365.59;678355;29;1359;-78
2022/03/20 00:17:16;;;;;;;20.57;16.00;;;;;;;4.78;51.56;102362.00;677260;29;1205;-78
2022/03/20 00:17:37;;;;;;;22.58;16.05;;;;;;;4.73;52.29;102361.75;676023;29;1270;-78
2022/03/20 00:17:57;;;;;;;20.52;15.85;;;;;;;4.78;51.97;102364.59;672100;29;957;-78
2022/03/20 00:18:23;;;;;;;19.73;15.55;;;;;;;4.73;51.67;102354.00;672670;29;1099;-78
2022/03/20 00:18:43;;;;;;;21.88;16.08;;;;;;;4.72;51.38;102357.44;674381;29;1537;-78
2022/03/20 00:19:05;;;;;;;19.80;15.95;;;;;;;4.68;51.56;102362.38;674918;29;1205;-79
2022/03/20 00:19:26;;;;;;;20.90;15.88;;;;;;;4.72;51.10;102354.84;671175;29;4434;-78
2022/03/20 00:19:47;;;;;;;21.55;15.77;;;;;;;4.74;51.92;102386.88;672370;29;1531;-79
2022/03/20 00:20:08;;;;;;;22.40;16.40;;;;;;;4.70;51.80;102353.84;672001;29;913;-79
2022/03/20 00:20:35;;;;;;;21.83;16.73;;;;;;;4.66;51.52;102351.06;671341;29;1393;-78
2022/03/20 00:20:58;;;;;;;22.27;16.40;;;;;;;4.67;51.18;102374.44;674482;29;1292;-79
2022/03/20 00:21:18;;;;;;;20.75;16.05;;;;;;;4.63;51.31;102354.41;673936;29;1559;-79
2022/03/20 00:21:39;;;;;;;21.50;15.87;;;;;;;4.68;51.78;102355.50;674620;29;1395;-79
2022/03/20 00:22:03;;;;;;;20.38;15.40;;;;;;;4.76;51.45;102380.06;673268;29;1654;-79
2022/03/20 00:22:26;;;;;;;20.00;15.30;;;;;;;4.77;51.39;102388.72;674707;29;4324;-78
2022/03/20 00:22:47;;;;;;;20.30;16.25;;;;;;;4.72;52.76;102357.44;676900;29;1883;-78
2022/03/20 00:23:09;;;;;;;21.97;16.60;;;;;;;4.67;51.16;102351.13;673556;29;1582;-78
2022/03/20 00:23:30;;;;;;;21.35;16.13;;;;;;;4.66;51.46;102345.88;673557;29;1557;-80
2022/03/20 00:23:50;;;;;;;19.27;15.83;;;;;;;4.69;51.63;102346.03;673865;29;1101;-79
2022/03/20 00:24:11;;;;;;;20.10;15.85;;;;;;;4.71;51.66;102358.22;670762;29;1422;-78
2022/03/20 00:24:32;;;;;;;20.10;15.70;;;;;;;4.68;51.71;102345.16;674622;29;1338;-78
2022/03/20 00:24:53;;;;;;;21.45;16.15;;;;;;;4.68;52.04;102350.31;678068;29;1607;-79
2022/03/20 00:25:13;;;;;;;20.47;16.07;;;;;;;4.69;51.57;102346.91;679912;29;1165;-78
2022/03/20 00:25:34;;;;;;;20.30;15.88;;;;;;;4.70;51.84;102343.50;679036;29;4302;-79
2022/03/20 00:25:56;;;;;;;21.20;16.67;;;;;;;4.73;52.58;102348.81;679666;28;1252;-79
2022/03/20 00:26:18;;;;;;;21.25;16.23;;;;;;;4.73;52.49;102337.56;679908;29;1493;-79
2022/03/20 00:26:41;;;;;;;20.73;15.45;;;;;;;4.71;52.17;102345.28;676742;29;1241;-79
2022/03/20 00:27:01;;;;;;;18.88;15.90;;;;;;;4.70;51.64;102338.31;677314;29;1570;-79
2022/03/20 00:27:22;;;;;;;21.35;16.58;;;;;;;4.70;51.50;102337.44;672347;29;1354;-78
2022/03/20 00:27:43;;;;;;;21.38;16.30;;;;;;;4.67;50.69;102361.50;674173;29;1424;-79
2022/03/20 00:28:11;;;;;;;21.75;16.45;;;;;;;4.65;51.12;102365.69;675112;29;842;-78
2022/03/20 00:28:34;;;;;;;22.13;16.23;;;;;;;4.63;51.24;102351.81;673805;29;5390;-79
2022/03/20 00:28:55;;;;;;;20.17;15.93;;;;;;;4.65;51.12;102339.78;673400;29;1568;-80
2022/03/20 00:29:16;;;;;;;21.65;16.23;;;;;;;4.72;51.53;102333.19;674255;29;1176;-79
2022/03/20 00:29:36;;;;;;;20.33;16.20;;;;;;;4.83;50.83;102338.88;671204;29;1380;-79
2022/03/20 00:29:57;;;;;;;20.60;15.60;;;;;;;4.81;50.65;102367.31;672256;29;1164;-79
2022/03/20 00:30:17;;;;;;;21.77;16.10;;;;;;;4.72;51.54;102336.69;671906;29;1337;-80
2022/03/20 00:30:40;;;;;;;22.00;16.27;;;;;;;4.73;51.31;102338.44;676720;29;1397;-79
2022/03/20 00:31:00;;;;;;;21.55;16.10;;;;;;;4.74;51.44;102368.72;678264;29;1373;-79
2022/03/20 00:31:21;;;;;;;21.63;15.37;;;;;;;4.69;52.39;102336.53;678303;29;4311;-80
2022/03/20 00:31:46;;;;;;;20.45;15.23;;;;;;;4.72;50.92;102331.50;679616;29;1285;-79
2022/03/20 00:32:11;;;;;;;21.17;15.73;;;;;;;4.71;50.57;102321.09;673780;29;1099;-79
2022/03/20 00:32:35;;;;;;;20.83;16.00;;;;;;;4.80;50.34;102354.28;679906;29;1346;-79
2022/03/20 00:32:55;;;;;;;20.75;15.90;;;;;;;4.77;51.00;102332.59;675804;29;1237;-79
2022/03/20 00:33:19;;;;;;;22.33;15.95;;;;;;;4.82;51.12;102347.47;675764;29;1998;-79
2022/03/20 00:33:40;;;;;;;21.70;16.00;;;;;;;4.76;51.18;102325.66;679222;29;1106;-79
2022/03/20 00:34:00;;;;;;;22.10;15.77;;;;;;;4.77;50.74;102330.00;681106;29;1285;-79
2022/03/20 00:34:21;;;;;;;20.50;15.90;;;;;;;4.74;51.36;102342.81;676329;29;4333;-79
2022/03/20 00:34:41;;;;;;;20.50;16.67;;;;;;;4.68;51.59;102334.78;676671;29;1169;-79
2022/03/20 00:35:02;;;;;;;20.50;16.43;;;;;;;4.68;51.88;102327.00;674588;29;1099;-79
2022/03/20 00:35:22;;;;;;;19.73;16.48;;;;;;;4.62;50.94;102318.94;674549;29;932;-79
2022/03/20 00:35:43;;;;;;;21.20;16.35;;;;;;;4.63;51.36;102325.03;672868;29;1232;-79
2022/03/20 00:36:04;;;;;;;21.23;16.13;;;;;;;4.63;51.33;102325.91;679430;29;1484;-79
2022/03/20 00:36:25;;;;;;;20.53;15.60;;;;;;;4.63;51.33;102333.66;678140;29;869;-79
2022/03/20 00:36:46;;;;;;;21.30;15.02;;;;;;;4.65;51.97;102324.25;676282;29;1114;-79
2022/03/20 00:37:07;;;;;;;21.33;15.90;;;;;;;4.57;51.51;102316.16;679334;29;1465;-78
2022/03/20 00:37:29;;;;;;;20.65;15.85;;;;;;;4.71;50.94;102324.56;675928;29;4358;-79
2022/03/20 00:37:50;;;;;;;21.20;16.02;;;;;;;4.76;51.27;102328.25;674414;29;1226;-80
2022/03/20 00:38:11;;;;;;;20.80;16.00;;;;;;;4.74;52.07;102321.22;672142;29;1174;-79
2022/03/20 00:38:31;;;;;;;22.40;16.83;;;;;;;4.68;51.29;102327.00;671745;29;1268;-79
2022/03/20 00:38:52;;;;;;;21.67;16.27;;;;;;;4.75;52.23;102331.66;671875;29;981;-79
2022/03/20 00:39:12;;;;;;;20.70;15.90;;;;;;;4.76;51.45;102320.47;674674;29;1227;-78
2022/03/20 00:39:34;;;;;;;22.47;16.30;;;;;;;4.78;50.97;102351.63;674715;29;1080;-80
2022/03/20 00:39:55;;;;;;;19.92;15.57;;;;;;;4.71;51.28;102319.38;677832;29;1029;-79
2022/03/20 00:40:16;;;;;;;21.10;15.85;;;;;;;4.68;50.86;102316.66;679088;29;1303;-79
2022/03/20 00:40:37;;;;;;;21.52;16.00;;;;;;;4.62;51.31;102311.16;678487;29;4297;-79
2022/03/20 00:40:58;;;;;;;23.10;16.67;;;;;;;4.56;51.98;102319.53;678857;29;1306;-80
2022/03/20 00:41:18;;;;;;;25.63;16.63;;;;;;;4.55;52.42;102342.78;677282;29;1233;-79
2022/03/20 00:41:39;;;;;;;23.27;16.30;;;;;;;4.52;52.85;102353.00;674763;29;1484;-80
2022/03/20 00:41:59;;;;;;;20.37;15.40;;;;;;;4.59;53.54;102323.97;672269;29;1174;-79
2022/03/20 00:42:20;;;;;;;20.77;14.85;;;;;;;4.63;52.35;102325.03;673940;29;4657;-79
2022/03/20 00:42:41;;;;;;;21.48;16.05;;;;;;;4.65;52.32;102334.63;677348;29;2235;-79
2022/03/20 00:43:03;;;;;;;20.10;16.13;;;;;;;4.71;52.11;102326.28;678557;29;1984;-79
2022/03/20 00:43:24;;;;;;;19.42;15.80;;;;;;;4.69;52.06;102310.63;676120;29;4318;-79
2022/03/20 00:43:44;;;;;;;20.58;16.02;;;;;;;4.68;51.37;102313.16;677199;29;1031;-79
2022/03/20 00:44:08;;;;;;;21.33;16.00;;;;;;;4.64;52.13;102319.91;677388;29;1010;-79
2022/03/20 00:44:28;;;;;;;20.42;15.70;;;;;;;4.63;50.98;102325.91;677398;29;1981;-78
2022/03/20 00:44:51;;;;;;;19.15;14.73;;;;;;;4.77;49.95;102342.97;678049;29;1125;-79
2022/03/20 00:45:12;;;;;;;20.67;15.30;;;;;;;4.78;50.30;102300.69;675945;29;1242;-79
2022/03/20 00:45:36;;;;;;;20.25;15.20;;;;;;;4.74;50.68;102303.09;675668;29;1393;-79
2022/03/20 00:45:59;;;;;;;19.65;15.80;;;;;;;4.73;50.41;102325.50;673541;29;1258;-79
2022/03/20 00:46:19;;;;;;;20.38;15.90;;;;;;;4.64;51.32;102331.97;675133;29;4376;-79
2022/03/20 00:46:40;;;;;;;22.00;15.70;;;;;;;4.64;51.44;102321.59;678150;29;1185;-79
2022/03/20 00:47:01;;;;;;;21.33;15.27;;;;;;;4.66;51.07;102333.81;675628;29;1255;-78
2022/03/20 00:47:21;;;;;;;21.63;16.00;;;;;;;4.63;50.75;102350.94;677112;29;1366;-79
2022/03/20 00:47:44;;;;;;;20.73;16.10;;;;;;;4.57;50.89;102341.16;677865;29;1381;-79
2022/03/20 00:48:07;;;;;;;19.52;15.73;;;;;;;4.56;51.00;102314.34;679262;29;1339;-79
2022/03/20 00:48:30;;;;;;;21.45;14.98;;;;;;;4.54;51.44;102312.50;677821;29;1340;-78
2022/03/20 00:48:55;;;;;;;21.02;15.52;;;;;;;4.55;51.88;102296.16;672055;29;1262;-79
2022/03/20 00:49:18;;;;;;;20.40;15.43;;;;;;;4.49;51.95;102304.53;677499;29;1272;-79
2022/03/20 00:49:39;;;;;;;21.58;15.70;;;;;;;4.52;51.99;102317.63;676800;29;4712;-80
2022/03/20 00:50:00;;;;;;;20.88;15.48;;;;;;;4.52;51.06;102325.41;676600;29;1312;-79
2022/03/20 00:50:21;;;;;;;19.45;15.75;;;;;;;4.52;51.24;102306.38;674207;29;1342;-79
2022/03/20 00:50:42;;;;;;;20.00;16.23;;;;;;;4.55;50.93;102311.69;676520;29;1111;-79
2022/03/20 00:51:06;;;;;;;22.00;15.80;;;;;;;4.59;51.06;102313.63;678395;29;1220;-79
2022/03/20 00:51:28;;;;;;;20.15;15.60;;;;;;;4.55;51.16;102309.13;678281;29;1072;-79
2022/03/20 00:51:49;;;;;;;19.52;15.52;;;;;;;4.54;50.91;102302.16;675893;29;1128;-79
2022/03/20 00:52:10;;;;;;;19.67;15.50;;;;;;;4.50;51.39;102297.66;672523;29;795;-79
2022/03/20 00:52:32;;;;;;;20.00;15.52;;;;;;;4.47;51.21;102297.50;676256;29;4253;-78
2022/03/20 00:52:52;;;;;;;21.55;16.35;;;;;;;4.47;52.38;102297.50;673641;29;1384;-79
2022/03/20 00:53:13;;;;;;;22.27;16.50;;;;;;;4.55;52.28;102296.16;677809;29;1196;-78
2022/03/20 00:53:34;;;;;;;21.07;16.20;;;;;;;4.49;51.79;102298.47;675900;29;1028;-79
2022/03/20 00:53:56;;;;;;;19.15;15.15;;;;;;;4.45;51.43;102289.69;678633;29;1234;-79
2022/03/20 00:54:17;;;;;;;21.10;15.25;;;;;;;4.46;51.20;102296.63;681873;29;1129;-79
2022/03/20 00:54:37;;;;;;;21.75;16.27;;;;;;;4.44;51.09;102285.31;680775;29;1046;-78
2022/03/20 00:54:59;;;;;;;21.23;15.97;;;;;;;4.41;51.63;102288.63;674987;29;1112;-79
2022/03/20 00:55:19;;;;;;;20.70;15.50;;;;;;;4.40;51.84;102288.56;672607;29;4344;-81
2022/03/20 00:55:40;;;;;;;21.50;15.65;;;;;;;4.50;51.61;102283.00;674392;29;2123;-79
2022/03/20 00:56:01;;;;;;;21.65;15.77;;;;;;;4.62;51.29;102286.97;674361;29;1970;-79
2022/03/20 00:56:21;;;;;;;24.63;16.10;;;;;;;4.67;50.48;102293.25;674011;29;1008;-79
2022/03/20 00:56:42;;;;;;;20.48;15.82;;;;;;;4.64;51.09;102286.22;674871;29;1275;-78
2022/03/20 00:57:04;;;;;;;20.73;15.75;;;;;;;4.60;50.97;102286.91;675778;29;1303;-79
2022/03/20 00:57:25;;;;;;;21.37;15.97;;;;;;;4.57;50.70;102291.97;675575;29;1438;-79
2022/03/20 00:57:46;;;;;;;22.73;16.33;;;;;;;4.55;51.70;102288.41;675726;29;1274;-78
2022/03/20 00:58:06;;;;;;;20.58;15.88;;;;;;;4.46;52.57;102299.22;674755;29;1186;-79
2022/03/20 00:58:27;;;;;;;21.33;16.07;;;;;;;4.40;52.34;102292.06;676118;29;4361;-79
2022/03/20 00:58:48;;;;;;;20.58;15.90;;;;;;;4.39;52.32;102298.03;679139;29;1070;-78
2022/03/20 00:59:08;;;;;;;20.35;15.63;;;;;;;4.38;52.67;102308.34;674361;29;1234;-79
2022/03/20 00:59:29;;;;;;;22.00;16.00;;;;;;;4.41;52.57;102287.75;672903;29;1168;-78
2022/03/20 00:59:49;;;;;;;20.88;15.52;;;;;;;4.45;52.94;102288.81;674598;29;1018;-79
2022/03/20 01:00:10;;;;;;;19.57;15.27;;;;;;;4.43;52.33;102287.03;679499;29;1395;-78
2022/03/20 01:00:32;;;;;;;21.52;15.70;;;;;;;4.44;51.93;102285.31;680386;29;1308;-78
2022/03/20 01:00:53;;;;;;;20.88;15.80;;;;;;;4.41;51.91;102282.56;682161;29;1067;-79
2022/03/20 01:01:14;;;;;;;19.87;15.20;;;;;;;4.51;51.47;102289.94;678736;29;1146;-80
2022/03/20 01:01:34;;;;;;;20.27;15.05;;;;;;;4.49;51.28;102290.72;679235;29;4327;-79
2022/03/20 01:01:55;;;;;;;19.83;15.68;;;;;;;4.47;51.27;102282.84;675437;29;1185;-79
2022/03/20 01:02:15;;;;;;;20.03;16.07;;;;;;;4.48;51.64;102284.63;676338;29;1316;-79
2022/03/20 01:02:40;;;;;;;20.25;15.57;;;;;;;4.48;51.49;102294.13;679687;29;1725;-78
2022/03/20 01:03:00;;;;;;;21.58;16.10;;;;;;;4.43;50.96;102287.03;677068;29;1915;-79
2022/03/20 01:03:21;;;;;;;20.33;16.10;;;;;;;4.45;51.54;102287.09;674012;29;1799;-78
2022/03/20 01:03:42;;;;;;;22.60;16.13;;;;;;;4.46;51.98;102280.19;674430;29;1981;-79
2022/03/20 01:04:03;;;;;;;21.45;15.32;;;;;;;4.50;51.39;102283.00;673261;29;1364;-79
2022/03/20 01:04:26;;;;;;;20.95;16.58;;;;;;;4.50;51.21;102275.25;674123;29;4296;-79
2022/03/20 01:04:46;;;;;;;20.65;16.70;;;;;;;4.45;52.23;102287.09;675580;29;1586;-79
2022/03/20 01:05:08;;;;;;;19.98;15.13;;;;;;;4.43;52.29;102283.53;675914;29;1787;-79
2022/03/20 01:05:29;;;;;;;20.65;15.38;;;;;;;4.43;52.12;102281.84;674642;29;1714;-78
2022/03/20 01:05:49;;;;;;;22.60;16.23;;;;;;;4.43;51.21;102281.84;675251;29;1730;-78
2022/03/20 01:06:11;;;;;;;21.38;15.48;;;;;;;4.52;50.90;102275.31;674597;29;1246;-79
2022/03/20 01:06:31;;;;;;;23.23;16.42;;;;;;;4.47;50.99;102282.84;674134;29;1650;-79
2022/03/20 01:06:55;;;;;;;20.40;15.53;;;;;;;4.51;51.50;102276.13;677062;29;1778;-78
2022/03/20 01:07:15;;;;;;;20.85;15.95;;;;;;;4.43;50.94;102280.94;677582;29;1621;-79
2022/03/20 01:07:37;;;;;;;20.37;15.40;;;;;;;4.45;52.02;102284.50;679818;28;4300;-79
2022/03/20 01:07:59;;;;;;;21.65;15.77;;;;;;;4.45;51.42;102281.91;680762;28;1303;-78
2022/03/20 01:08:19;;;;;;;20.70;15.32;;;;;;;4.49;50.87;102283.81;679890;29;1407;-78
2022/03/20 01:08:40;;;;;;;22.50;16.20;;;;;;;4.52;50.82;102280.50;679008;29;1682;-79
2022/03/20 01:09:00;;;;;;;21.40;15.75;;;;;;;4.52;51.27;102288.25;676612;29;1635;-78
2022/03/20 01:09:22;;;;;;;20.92;16.23;;;;;;;4.51;51.10;102277.00;679329;29;2072;-78
2022/03/20 01:09:45;;;;;;;19.65;15.40;;;;;;;4.50;50.89;102283.00;678385;29;1301;-79
2022/03/20 01:10:07;;;;;;;20.33;15.70;;;;;;;4.50;50.85;102283.00;674482;29;1355;-80
2022/03/20 01:10:30;;;;;;;21.67;15.93;;;;;;;4.53;51.08;102282.28;678535;29;4277;-79
2022/03/20 01:10:51;;;;;;;21.55;16.67;;;;;;;4.60;50.72;102277.41;678044;29;1145;-79
2022/03/20 01:11:13;;;;;;;19.20;15.27;;;;;;;4.61;50.33;102270.56;678978;29;1265;-79
2022/03/20 01:11:34;;;;;;;20.33;15.88;;;;;;;4.56;50.96;102277.22;678049;29;845;-78
2022/03/20 01:11:55;;;;;;;19.70;15.07;;;;;;;4.57;50.86;102274.69;676659;29;1292;-79
2022/03/20 01:12:16;;;;;;;21.92;16.10;;;;;;;4.50;51.17;102272.66;677985;29;1383;-79
2022/03/20 01:12:38;;;;;;;20.50;16.02;;;;;;;4.45;50.92;102273.25;676731;28;1181;-80
2022/03/20 01:12:58;;;;;;;20.90;15.63;;;;;;;4.41;51.60;102274.81;678576;28;1637;-80
2022/03/20 01:13:18;;;;;;;20.90;15.33;;;;;;;4.43;51.14;102276.66;679051;28;4333;-79
2022/03/20 01:13:39;;;;;;;20.25;15.18;;;;;;;4.50;51.05;102267.47;680070;29;1542;-79
2022/03/20 01:13:59;;;;;;;19.80;15.20;;;;;;;4.55;51.33;102263.38;679723;29;1559;-79
2022/03/20 01:14:22;;;;;;;19.90;15.25;;;;;;;4.53;52.07;102277.09;678439;29;1450;-78
2022/03/20 01:14:42;;;;;;;20.00;15.77;;;;;;;4.48;52.10;102273.41;678748;29;1443;-78
2022/03/20 01:15:06;;;;;;;20.85;15.80;;;;;;;4.48;51.21;102275.97;677453;29;1263;-78
2022/03/20 01:15:27;;;;;;;20.55;15.70;;;;;;;4.43;52.05;102266.31;679667;29;1118;-80
2022/03/20 01:15:50;;;;;;;19.80;15.10;;;;;;;4.38;51.63;102265.19;677129;29;1601;-79
2022/03/20 01:16:10;;;;;;;21.45;15.93;;;;;;;4.41;51.16;102280.88;674144;29;1362;-79
2022/03/20 01:16:31;;;;;;;20.70;15.00;;;;;;;4.36;52.72;102279.78;674020;29;4277;-79
2022/03/20 01:16:54;;;;;;;19.93;15.23;;;;;;;4.41;51.64;102269.63;673669;29;1590;-79
2022/03/20 01:17:15;;;;;;;20.98;15.20;;;;;;;4.42;50.94;102259.34;672283;29;1412;-78
2022/03/20 01:17:36;;;;;;;20.42;15.25;;;;;;;4.49;50.60;102280.34;675400;29;1189;-79
2022/03/20 01:17:56;;;;;;;20.00;15.30;;;;;;;4.43;50.80;102279.25;675084;29;1293;-79
2022/03/20 01:18:19;;;;;;;21.30;15.70;;;;;;;4.50;50.52;102264.88;676082;29;1288;-79
2022/03/20 01:18:43;;;;;;;19.88;15.57;;;;;;;4.51;50.76;102283.88;675303;29;2574;-79
2022/03/20 01:19:06;;;;;;;21.52;15.77;;;;;;;4.46;51.28;102264.66;676836;29;1333;-79
2022/03/20 01:19:27;;;;;;;21.17;16.02;;;;;;;4.37;50.89;102254.75;675089;29;4319;-79
2022/03/20 01:19:48;;;;;;;19.67;15.30;;;;;;;4.39;52.26;102264.38;674870;29;3431;-78
2022/03/20 01:20:09;;;;;;;21.45;16.08;;;;;;;4.34;52.02;102267.56;676285;29;1281;-78
2022/03/20 01:20:30;;;;;;;23.20;16.42;;;;;;;4.35;52.43;102262.47;672730;29;1219;-78
2022/03/20 01:20:53;;;;;;;21.02;15.52;;;;;;;4.38;51.28;102267.78;672115;29;1287;-78
2022/03/20 01:21:13;;;;;;;20.55;15.23;;;;;;;4.32;51.69;102264.00;672611;29;1545;-79
2022/03/20 01:21:33;;;;;;;20.40;15.23;;;;;;;4.28;50.67;102251.75;672527;29;1461;-78
2022/03/20 01:21:55;;;;;;;19.20;15.13;;;;;;;4.26;51.65;102264.63;675969;29;1368;-79
2022/03/20 01:22:16;;;;;;;19.60;15.35;;;;;;;4.24;52.26;102255.91;676627;29;1401;-78
2022/03/20 01:22:40;;;;;;;20.35;15.30;;;;;;;4.24;52.76;102280.09;662538;29;5966;-78
2022/03/20 01:23:01;;;;;;;20.70;15.27;;;;;;;4.33;51.94;102269.25;672144;29;1947;-78
2022/03/20 01:23:21;;;;;;;19.13;15.73;;;;;;;4.33;51.95;102268.38;675283;29;1477;-79
2022/03/20 01:23:42;;;;;;;19.85;15.93;;;;;;;4.32;51.48;102251.97;677205;29;1564;-79
2022/03/20 01:24:03;;;;;;;20.10;15.87;;;;;;;4.27;51.66;102274.16;671689;29;1390;-78
2022/03/20 01:24:24;;;;;;;20.75;15.82;;;;;;;4.25;52.82;102258.56;672742;29;1317;-78
2022/03/20 01:24:45;;;;;;;21.95;15.45;;;;;;;4.23;52.32;102252.41;674234;29;1561;-79
2022/03/20 01:25:07;;;;;;;20.33;15.27;;;;;;;4.19;52.50;102250.50;675176;29;1380;-78
2022/03/20 01:25:27;;;;;;;19.95;15.40;;;;;;;4.16;52.85;102234.81;678446;29;4361;-78
2022/03/20 01:25:49;;;;;;;20.40;15.60;;;;;;;4.22;54.12;102258.44;680443;29;1129;-79
2022/03/20 01:26:11;;;;;;;21.02;15.90;;;;;;;4.20;53.49;102260.03;677699;29;1265;-79
2022/03/20 01:26:31;;;;;;;21.52;15.52;;;;;;;4.28;52.40;102249.16;678758;29;1054;-78
2022/03/20 01:26:52;;;;;;;20.43;14.93;;;;;;;4.34;52.17;102246.88;676857;29;1478;-79
2022/03/20 01:27:13;;;;;;;20.67;15.33;;;;;;;4.29;52.50;102256.97;676950;29;1310;-78
2022/03/20 01:27:36;;;;;;;20.08;15.05;;;;;;;4.26;51.92;102246.50;679286;29;1328;-79
2022/03/20 01:27:59;;;;;;;19.65;15.25;;;;;;;4.26;52.77;102243.91;679466;29;1436;-79
2022/03/20 01:28:26;;;;;;;21.58;15.52;;;;;;;4.28;50.97;102247.47;675987;29;4321;-79
2022/03/20 01:28:50;;;;;;;20.55;15.88;;;;;;;4.32;50.32;102244.22;676959;29;1321;-79
2022/03/20 01:29:10;;;;;;;20.23;15.32;;;;;;;4.29;51.60;102250.94;677333;29;1496;-79
2022/03/20 01:29:31;;;;;;;20.35;15.40;;;;;;;4.32;51.36;102248.47;679426;29;1229;-79
2022/03/20 01:29:51;;;;;;;22.87;15.67;;;;;;;4.32;51.33;102244.22;674215;29;1270;-79
2022/03/20 01:30:12;;;;;;;21.98;15.38;;;;;;;4.35;51.03;102243.47;674598;29;1344;-79
2022/03/20 01:30:32;;;;;;;22.80;16.37;;;;;;;4.31;51.59;102234.66;674538;29;1654;-79
2022/03/20 01:30:55;;;;;;;21.77;16.40;;;;;;;4.38;51.18;102239.28;676780;29;1546;-78
2022/03/20 01:31:16;;;;;;;22.58;16.13;;;;;;;4.36;51.52;102238.34;672795;29;1864;-79
2022/03/20 01:31:39;;;;;;;23.23;16.10;;;;;;;4.30;51.14;102238.06;671528;29;4290;-79
2022/03/20 01:31:59;;;;;;;21.45;15.57;;;;;;;4.42;51.52;102243.81;673378;29;1216;-79
2022/03/20 01:32:20;;;;;;;22.00;15.77;;;;;;;4.42;51.22;102243.81;678234;29;1221;-78
2022/03/20 01:32:41;;;;;;;21.07;15.63;;;;;;;4.37;52.09;102234.06;677659;29;1206;-78
2022/03/20 01:33:02;;;;;;;20.73;15.63;;;;;;;4.34;51.88;102241.69;681284;29;1385;-78
2022/03/20 01:33:22;;;;;;;21.73;15.52;;;;;;;4.30;51.80;102238.06;679692;29;1419;-78
2022/03/20 01:33:43;;;;;;;22.73;15.55;;;;;;;4.30;51.58;102237.19;676366;29;1083;-78
2022/03/20 01:34:04;;;;;;;20.90;15.90;;;;;;;4.26;55.02;102236.13;674595;29;1189;-78
2022/03/20 01:34:25;;;;;;;20.70;15.95;;;;;;;4.24;52.51;102230.03;671631;29;4400;-79
2022/03/20 01:34:47;;;;;;;20.88;15.30;;;;;;;4.19;52.09;102227.19;670389;29;1373;-79
2022/03/20 01:35:09;;;;;;;22.30;15.70;;;;;;;4.14;51.74;102233.88;674357;29;1413;-78
2022/03/20 01:35:30;;;;;;;20.33;15.05;;;;;;;4.18;52.34;102229.72;673855;29;901;-79
2022/03/20 01:35:52;;;;;;;20.88;15.70;;;;;;;4.13;52.44;102228.63;677138;29;1276;-79
2022/03/20 01:36:12;;;;;;;21.60;15.70;;;;;;;4.07;52.98;102226.63;677437;29;1221;-78
2022/03/20 01:36:33;;;;;;;21.13;15.18;;;;;;;4.06;53.02;102228.34;678414;29;1356;-79
2022/03/20 01:36:54;;;;;;;20.40;15.47;;;;;;;4.05;52.11;102236.91;676856;29;1631;-78
2022/03/20 01:37:15;;;;;;;22.38;16.27;;;;;;;4.05;52.92;102236.91;676016;29;1162;-78
2022/03/20 01:37:36;;;;;;;21.27;15.93;;;;;;;4.11;52.58;102227.66;674923;29;4329;-79
2022/03/20 01:37:57;;;;;;;23.10;16.48;;;;;;;4.12;53.05;102226.84;676492;29;1675;-81
2022/03/20 01:38:20;;;;;;;20.88;15.68;;;;;;;4.07;52.85;102224.94;675945;29;1351;-78
2022/03/20 01:38:40;;;;;;;21.42;15.77;;;;;;;4.07;53.07;102214.59;677310;29;1062;-79
2022/03/20 01:39:01;;;;;;;21.55;15.60;;;;;;;4.02;53.57;102226.41;676209;29;956;-78
2022/03/20 01:39:21;;;;;;;22.07;15.63;;;;;;;4.00;53.47;102227.16;678254;29;1156;-79
2022/03/20 01:39:41;;;;;;;21.27;15.45;;;;;;;4.07;53.27;102212.00;676633;29;1168;-79
2022/03/20 01:40:04;;;;;;;21.77;15.53;;;;;;;4.05;52.66;102221.38;674577;29;1325;-78
2022/03/20 01:40:25;;;;;;;19.95;15.20;;;;;;;4.10;52.58;102213.84;677049;29;4340;-79
2022/03/20 01:40:47;;;;;;;20.45;15.43;;;;;;;4.14;52.46;102215.75;679662;28;1491;-79
2022/03/20 01:41:07;;;;;;;21.98;16.50;;;;;;;4.19;52.97;102221.16;679716;29;1515;-78